Kezdőlap
METAR-TAF:

METAR-TAF

Repülőterek :

Germiston, Dél-afrikai Köztársaság

Rand Airport

földrajzi szélesség: 26-14-33S, földrajzi hosszúság: 028-09-04E, magasság: 1671 m

Jelenlegi meteorológiai megfigyelések

A jelentés 2 órával és 2 perccel ezelõtt készült, 12:00 UTC
Északi szél 10 kt
Hőmérséklet 24°C
Páratartalom 50%
Légköri nyomás 1018 hPa
Látótávolság 10 km, vagy több
Szakadozott felhőzet 2500 lábon

METAR: FAGM 241200Z 36010KT 9999 BKN025 24/13 Q1018

Idő: 16:02 (14:02 UTC)


TAF: hiányzik

Meteorológiai megfigyelések és előrejelzések több, mint 4000 repülőtéren (METAR és TAF jelentéseket).

A térképen piros és sárga pontok jelzik az elérhető meteorológiai állomásokat.

Mozgassa az egeret a pont fölött, hogy megjelenjen az állomás neve.

Azután kattintson az időjárási megfigyelések és előrejelzések megtekintéséhez.

A térkép megváltoztatása: kattintson a fekete keresztel jelölt zöld gombra ráközelítéshez, a vonallal jelölt zöld gombra távolításhoz, vagy a zöld nyilakra a szomszédos térképek eléréséhez.


METAR-TAF: